Time;durP1;ratioP1;P1;durP2;ratioP2;P2;SDS_P1;SDS_P2;PMS_P1;PMS_P2;Temp;Humidity;BMP_temperature;BMP_pressure;BME280_temperature;BME280_humidity;BME280_pressure;Samples;Min_cycle;Max_cycle;Signal;HPM_P1;HPM_P2
2022/12/07 00:01:43;;;;;;;25.73;17.25;;;6.00;1.00;;;;;;5099512;28;20184;-88
2022/12/07 00:04:12;;;;;;;28.67;17.70;;;6.00;1.00;;;;;;5093367;28;20556;-88
2022/12/07 00:06:40;;;;;;;27.60;17.75;;;6.10;1.00;;;;;;5102632;28;20191;-87
2022/12/07 00:09:06;;;;;;;23.10;17.27;;;6.10;1.00;;;;;;5101953;28;20203;-88
2022/12/07 00:11:32;;;;;;;25.08;17.75;;;6.10;1.00;;;;;;5092424;28;20610;-88
2022/12/07 00:14:01;;;;;;;24.48;17.52;;;6.10;1.00;;;;;;5097129;28;20184;-87
2022/12/07 00:16:30;;;;;;;28.30;17.98;;;6.10;1.00;;;;;;5108734;28;20651;-88
2022/12/07 00:18:56;;;;;;;25.88;18.00;;;6.00;1.00;;;;;;5107266;28;20239;-87
2022/12/07 00:21:24;;;;;;;27.08;16.77;;;6.00;1.00;;;;;;5108222;28;20263;-88
2022/12/07 00:23:51;;;;;;;31.02;18.50;;;6.00;1.00;;;;;;5105739;28;20176;-89
2022/12/07 00:26:18;;;;;;;26.17;19.15;;;6.00;1.00;;;;;;5100620;28;20287;-88
2022/12/07 00:28:49;;;;;;;27.35;18.48;;;6.00;1.00;;;;;;5112670;28;20167;-89
2022/12/07 00:31:16;;;;;;;25.10;18.88;;;6.00;1.00;;;;;;5103451;28;20176;-88
2022/12/07 00:33:42;;;;;;;24.27;17.13;;;6.00;1.00;;;;;;5108261;27;20195;-88
2022/12/07 00:36:11;;;;;;;21.80;17.40;;;6.00;1.00;;;;;;5099946;28;20725;-89
2022/12/07 00:38:38;;;;;;;25.40;18.50;;;6.00;1.00;;;;;;5110085;28;20465;-88
2022/12/07 00:41:07;;;;;;;27.33;19.42;;;6.00;1.00;;;;;;5113599;28;20242;-88
2022/12/07 00:43:33;;;;;;;26.98;20.35;;;6.00;1.00;;;;;;5111243;28;20325;-88
2022/12/07 00:45:59;;;;;;;28.05;20.10;;;6.00;1.00;;;;;;5117996;28;20450;-88
2022/12/07 00:48:25;;;;;;;29.63;20.03;;;6.00;1.00;;;;;;5129832;28;20171;-88
2022/12/07 00:50:51;;;;;;;28.73;19.80;;;6.00;1.00;;;;;;5092500;28;20191;-88
2022/12/07 00:53:17;;;;;;;26.65;19.13;;;6.00;1.00;;;;;;5104303;28;20184;-88
2022/12/07 00:55:43;;;;;;;27.35;20.10;;;6.00;1.00;;;;;;5111382;28;20199;-88
2022/12/07 00:58:09;;;;;;;25.55;18.55;;;6.00;1.00;;;;;;5112938;28;20207;-87
2022/12/07 01:00:39;;;;;;;29.53;20.30;;;6.00;1.00;;;;;;5099403;28;20179;-88
2022/12/07 01:03:07;;;;;;;27.75;20.65;;;5.90;1.00;;;;;;5103755;28;20240;-88
2022/12/07 01:05:32;;;;;;;32.67;22.38;;;6.00;1.00;;;;;;5111875;28;20207;-88
2022/12/07 01:07:58;;;;;;;26.93;20.00;;;5.90;1.00;;;;;;5108465;28;20175;-88
2022/12/07 01:10:23;;;;;;;26.23;19.60;;;6.00;1.00;;;;;;5113077;28;20654;-89
2022/12/07 01:12:49;;;;;;;31.27;22.03;;;6.00;1.00;;;;;;5107624;28;20171;-88
2022/12/07 01:15:14;;;;;;;29.13;20.97;;;6.00;1.00;;;;;;5103244;28;20214;-87
2022/12/07 01:17:40;;;;;;;31.97;23.07;;;6.00;1.00;;;;;;5107019;28;20180;-89
2022/12/07 01:20:07;;;;;;;31.67;22.23;;;6.00;1.00;;;;;;5090454;28;20200;-88
2022/12/07 01:22:40;;;;;;;30.27;22.50;;;6.00;1.00;;;;;;5094581;28;20228;-89
2022/12/07 01:25:06;;;;;;;25.65;20.83;;;6.00;1.00;;;;;;5096052;28;20556;-89
2022/12/07 01:27:33;;;;;;;31.50;21.70;;;6.10;1.00;;;;;;5093440;28;20574;-89
2022/12/07 01:29:59;;;;;;;34.90;20.60;;;6.10;1.00;;;;;;5092396;28;20186;-88
2022/12/07 01:32:25;;;;;;;27.43;20.80;;;6.10;1.00;;;;;;5092374;28;20184;-88
2022/12/07 01:34:50;;;;;;;37.40;23.40;;;6.10;1.00;;;;;;5096807;28;20290;-89
2022/12/07 01:37:16;;;;;;;33.13;23.17;;;6.10;1.00;;;;;;5108038;28;20171;-89
2022/12/07 01:39:41;;;;;;;30.20;21.83;;;6.10;1.00;;;;;;5110486;28;20210;-87
2022/12/07 01:42:13;;;;;;;33.63;23.07;;;6.10;1.00;;;;;;5112691;28;20657;-88
2022/12/07 01:45:16;;;;;;;35.20;22.98;;;6.20;1.00;;;;;;5111709;28;20198;-88
2022/12/07 01:47:46;;;;;;;35.28;23.50;;;6.20;1.00;;;;;;5109808;28;20182;-88
2022/12/07 01:50:12;;;;;;;35.92;23.17;;;6.20;1.00;;;;;;5104821;28;20728;-86
2022/12/07 01:52:39;;;;;;;32.92;23.70;;;6.20;1.00;;;;;;5096456;28;20186;-89
2022/12/07 01:55:09;;;;;;;40.42;25.15;;;6.10;1.00;;;;;;5091710;28;20200;-89
2022/12/07 01:57:39;;;;;;;38.53;26.30;;;6.20;1.00;;;;;;5100687;28;20556;-87
2022/12/07 02:00:06;;;;;;;36.65;26.17;;;6.20;1.00;;;;;;5112222;28;20179;-88
2022/12/07 02:02:36;;;;;;;38.05;26.30;;;6.20;1.00;;;;;;5111034;28;20209;-88
2022/12/07 02:05:05;;;;;;;39.13;25.67;;;6.20;1.00;;;;;;5112505;28;20235;-88
2022/12/07 02:07:32;;;;;;;37.25;25.30;;;6.20;1.00;;;;;;5110677;28;20179;-88
2022/12/07 02:10:13;;;;;;;37.88;25.08;;;6.20;1.00;;;;;;5107849;28;20168;-88
2022/12/07 02:12:39;;;;;;;39.15;25.92;;;6.20;1.00;;;;;;5102439;28;20182;-87
2022/12/07 02:15:05;;;;;;;39.27;24.83;;;6.20;1.00;;;;;;5103538;28;20187;-88
2022/12/07 02:17:58;;;;;;;36.43;25.50;;;6.10;1.00;;;;;;5103010;28;20410;-88
2022/12/07 02:20:32;;;;;;;36.13;25.85;;;6.10;1.00;;;;;;5103054;28;21017;-88
2022/12/07 02:23:16;;;;;;;39.55;26.35;;;6.20;1.00;;;;;;5090519;28;20200;-87
2022/12/07 02:25:53;;;;;;;39.78;27.52;;;6.20;1.00;;;;;;5106804;28;20866;-87
2022/12/07 02:28:31;;;;;;;38.55;28.10;;;6.20;1.00;;;;;;5090613;28;20278;-88
2022/12/07 02:31:04;;;;;;;39.63;27.45;;;6.20;1.00;;;;;;5098933;28;20178;-88
2022/12/07 02:33:40;;;;;;;42.33;26.75;;;6.20;1.00;;;;;;5111713;28;20180;-88
2022/12/07 02:36:19;;;;;;;38.92;27.85;;;6.10;1.00;;;;;;5089697;28;20973;-88
2022/12/07 02:38:54;;;;;;;34.75;25.45;;;6.10;1.00;;;;;;5095073;28;20208;-86
2022/12/07 02:41:26;;;;;;;41.05;27.63;;;6.10;1.00;;;;;;5099508;28;20734;-88
2022/12/07 02:43:55;;;;;;;33.28;24.15;;;6.10;1.00;;;;;;5104268;28;20703;-88
2022/12/07 02:46:41;;;;;;;43.53;27.35;;;6.10;1.00;;;;;;5103279;28;20195;-88
2022/12/07 02:49:08;;;;;;;33.85;25.35;;;6.10;1.00;;;;;;5099394;28;20191;-87
2022/12/07 02:51:38;;;;;;;34.38;27.23;;;6.10;1.00;;;;;;5100832;28;20284;-88
2022/12/07 02:54:17;;;;;;;31.98;25.20;;;6.10;1.00;;;;;;5096135;28;20721;-88
2022/12/07 02:56:48;;;;;;;37.90;25.55;;;6.00;1.00;;;;;;5091516;28;20278;-88
2022/12/07 02:59:27;;;;;;;33.33;26.17;;;6.00;1.00;;;;;;5107655;28;20602;-87
2022/12/07 03:02:15;;;;;;;37.78;28.55;;;6.00;1.00;;;;;;5100096;28;20175;-88
2022/12/07 03:05:12;;;;;;;39.22;26.98;;;6.00;1.00;;;;;;5100145;28;20200;-87
2022/12/07 03:07:56;;;;;;;37.10;25.70;;;6.00;1.00;;;;;;5102155;28;20248;-88
2022/12/07 03:10:46;;;;;;;68.32;28.00;;;6.00;1.00;;;;;;5110976;28;20216;-88
2022/12/07 03:13:21;;;;;;;42.67;26.75;;;6.00;1.00;;;;;;5103458;28;20221;-87
2022/12/07 03:16:03;;;;;;;39.85;26.98;;;6.00;1.00;;;;;;5105640;28;20231;-87
2022/12/07 03:18:32;;;;;;;40.05;25.95;;;6.00;1.00;;;;;;5114920;28;20212;-86
2022/12/07 03:21:06;;;;;;;37.55;26.58;;;6.10;1.00;;;;;;5115517;28;20171;-88
2022/12/07 03:23:34;;;;;;;41.50;27.42;;;6.10;1.00;;;;;;5105177;28;20175;-86
2022/12/07 03:26:02;;;;;;;37.50;26.90;;;6.10;1.00;;;;;;5092596;28;20200;-88
2022/12/07 03:28:34;;;;;;;41.63;26.10;;;6.00;1.00;;;;;;5102716;28;20688;-86
2022/12/07 03:31:12;;;;;;;33.60;24.58;;;6.10;1.00;;;;;;5100688;28;20191;-88
2022/12/07 03:33:51;;;;;;;35.28;25.35;;;6.10;1.00;;;;;;5100039;28;20184;-88
2022/12/07 03:36:39;;;;;;;36.83;25.40;;;6.10;1.00;;;;;;5109793;28;20227;-88
2022/12/07 03:39:41;;;;;;;38.30;26.75;;;6.10;1.00;;;;;;5104021;28;20692;-89
2022/12/07 03:42:09;;;;;;;35.05;27.02;;;6.10;1.00;;;;;;5093332;28;20184;-88
2022/12/07 03:44:36;;;;;;;40.47;26.52;;;6.00;1.00;;;;;;5095383;28;20203;-88
2022/12/07 03:47:01;;;;;;;36.85;25.60;;;6.00;1.00;;;;;;5100956;28;20176;-88
2022/12/07 03:49:43;;;;;;;33.87;24.50;;;6.00;1.00;;;;;;5100563;28;20176;-88
2022/12/07 03:52:24;;;;;;;36.50;25.15;;;6.00;1.00;;;;;;5100286;28;20530;-88
2022/12/07 03:55:17;;;;;;;32.90;25.60;;;6.00;1.00;;;;;;5093642;28;20188;-89
2022/12/07 03:57:46;;;;;;;37.38;26.23;;;5.90;1.00;;;;;;5101606;28;20237;-87
2022/12/07 04:00:12;;;;;;;36.35;25.67;;;5.90;1.00;;;;;;5108887;28;20210;-87
2022/12/07 04:02:38;;;;;;;36.78;25.67;;;5.90;1.00;;;;;;5105049;28;20238;-87
2022/12/07 04:05:05;;;;;;;32.78;24.52;;;5.90;1.00;;;;;;5105286;28;20739;-88
2022/12/07 04:07:30;;;;;;;32.88;23.65;;;5.90;1.00;;;;;;5105706;28;20650;-89
2022/12/07 04:09:56;;;;;;;31.53;23.40;;;5.90;1.00;;;;;;5104557;28;20178;-89
2022/12/07 04:12:22;;;;;;;34.17;23.93;;;5.90;1.00;;;;;;5100785;28;20183;-88
2022/12/07 04:14:47;;;;;;;32.63;24.45;;;5.90;1.00;;;;;;5111795;28;20195;-87
2022/12/07 04:17:13;;;;;;;32.50;25.90;;;5.90;1.00;;;;;;5113329;28;20228;-89
2022/12/07 04:19:38;;;;;;;34.67;24.93;;;5.90;1.00;;;;;;5109890;27;20228;-88
2022/12/07 04:22:05;;;;;;;35.57;25.60;;;5.90;1.00;;;;;;5107871;28;20626;-89
2022/12/07 04:24:31;;;;;;;38.47;27.38;;;5.90;1.00;;;;;;5113094;28;20167;-87
2022/12/07 04:26:57;;;;;;;40.10;27.30;;;5.90;1.00;;;;;;5100764;28;20517;-87
2022/12/07 04:29:23;;;;;;;41.80;27.60;;;5.80;1.00;;;;;;5124815;28;20413;-88
2022/12/07 04:31:49;;;;;;;39.65;26.77;;;5.80;1.00;;;;;;5132282;28;20252;-87
2022/12/07 04:34:16;;;;;;;46.47;28.95;;;5.80;1.00;;;;;;5122376;28;20183;-86
2022/12/07 04:36:42;;;;;;;35.08;24.50;;;5.80;1.00;;;;;;5104818;28;20179;-89
2022/12/07 04:39:18;;;;;;;39.05;27.27;;;5.80;1.00;;;;;;5099052;28;20196;-88
2022/12/07 04:41:44;;;;;;;40.63;26.33;;;5.80;1.00;;;;;;5108230;28;20187;-88
2022/12/07 04:44:11;;;;;;;41.40;27.00;;;5.80;1.00;;;;;;5099038;28;20573;-89
2022/12/07 04:46:36;;;;;;;40.78;27.15;;;5.80;1.00;;;;;;5102999;28;20553;-88
2022/12/07 04:49:02;;;;;;;41.80;27.90;;;5.80;1.00;;;;;;5105421;28;20176;-89
2022/12/07 04:51:28;;;;;;;39.23;27.93;;;5.80;1.00;;;;;;5113352;28;20196;-89
2022/12/07 04:53:55;;;;;;;37.72;25.80;;;5.80;1.00;;;;;;5103575;28;20467;-88
2022/12/07 04:56:22;;;;;;;40.88;26.52;;;5.80;1.00;;;;;;5103403;28;20194;-88
2022/12/07 04:58:48;;;;;;;39.25;25.98;;;5.80;1.00;;;;;;5107390;28;20208;-88
2022/12/07 05:01:15;;;;;;;38.88;26.45;;;5.80;1.00;;;;;;5103689;28;20239;-89
2022/12/07 05:03:40;;;;;;;38.20;26.60;;;5.80;1.00;;;;;;5092088;28;20201;-88
2022/12/07 05:06:06;;;;;;;37.20;25.33;;;5.80;1.00;;;;;;5106644;28;20204;-89
2022/12/07 05:08:33;;;;;;;40.40;25.80;;;5.80;1.00;;;;;;5105588;28;20184;-89
2022/12/07 05:10:59;;;;;;;39.45;26.25;;;5.80;1.00;;;;;;5106772;28;20203;-89
2022/12/07 05:13:25;;;;;;;33.50;24.27;;;5.80;1.00;;;;;;5098020;28;20187;-87
2022/12/07 05:15:50;;;;;;;36.77;26.30;;;5.80;1.00;;;;;;5094149;28;20450;-88
2022/12/07 05:18:16;;;;;;;33.77;24.53;;;5.80;1.00;;;;;;5105653;28;20198;-89
2022/12/07 05:20:42;;;;;;;31.10;23.87;;;5.80;1.00;;;;;;5101131;28;20176;-89
2022/12/07 05:23:08;;;;;;;36.67;24.50;;;5.80;1.00;;;;;;5111098;28;20167;-88
2022/12/07 05:25:35;;;;;;;33.73;24.73;;;5.80;1.00;;;;;;5103641;28;20186;-87
2022/12/07 05:28:00;;;;;;;41.83;26.48;;;5.80;1.00;;;;;;5110327;28;20410;-88
2022/12/07 05:30:26;;;;;;;34.60;25.57;;;5.80;1.00;;;;;;5108483;28;20194;-88
2022/12/07 05:32:52;;;;;;;37.45;25.13;;;5.90;1.00;;;;;;5095493;28;20175;-88
2022/12/07 05:35:18;;;;;;;34.90;24.90;;;5.90;1.00;;;;;;5090783;28;20200;-87
2022/12/07 05:37:45;;;;;;;32.95;24.25;;;5.90;1.00;;;;;;5092211;28;20701;-88
2022/12/07 05:40:12;;;;;;;38.90;25.13;;;5.90;1.00;;;;;;5103699;28;20790;-88
2022/12/07 05:42:37;;;;;;;35.55;23.63;;;5.90;1.00;;;;;;5095003;28;20180;-88
2022/12/07 05:45:04;;;;;;;33.53;24.03;;;5.80;1.00;;;;;;5091375;28;20271;-88
2022/12/07 05:47:29;;;;;;;28.92;22.23;;;5.80;1.00;;;;;;5090888;28;20177;-89
2022/12/07 05:49:55;;;;;;;32.03;24.40;;;5.80;1.00;;;;;;5092909;28;20191;-88
2022/12/07 05:52:21;;;;;;;33.87;22.63;;;5.80;1.00;;;;;;5103305;28;20312;-88
2022/12/07 05:54:48;;;;;;;27.55;20.02;;;5.80;1.00;;;;;;5098259;28;20287;-87
2022/12/07 05:57:13;;;;;;;31.58;22.92;;;5.80;1.00;;;;;;5101893;28;20179;-88
2022/12/07 05:59:39;;;;;;;32.80;22.50;;;5.80;1.00;;;;;;5110463;28;20697;-87
2022/12/07 06:02:11;;;;;;;32.17;22.20;;;5.80;1.00;;;;;;5105631;28;20183;-88
2022/12/07 06:04:40;;;;;;;35.42;22.30;;;5.80;1.00;;;;;;5100205;28;20538;-88
2022/12/07 06:07:06;;;;;;;29.02;20.60;;;5.80;1.00;;;;;;5096992;28;20170;-88
2022/12/07 06:09:32;;;;;;;29.98;21.63;;;5.80;1.00;;;;;;5102729;28;20522;-88
2022/12/07 06:14:43;;;;;;;28.80;20.05;;;5.80;1.00;;;;;;5111089;28;20689;-88
2022/12/07 06:17:09;;;;;;;28.20;19.83;;;5.80;1.00;;;;;;5111278;28;20217;-87
2022/12/07 06:19:35;;;;;;;28.35;21.15;;;5.80;1.00;;;;;;5094344;28;20557;-88
2022/12/07 06:22:01;;;;;;;31.50;22.40;;;5.80;1.00;;;;;;5109077;28;20167;-86
2022/12/07 06:24:27;;;;;;;28.40;21.00;;;5.80;1.00;;;;;;5092106;28;20414;-89
2022/12/07 06:26:52;;;;;;;29.97;20.03;;;5.80;1.00;;;;;;5111016;28;20627;-89
2022/12/07 06:29:18;;;;;;;27.60;20.03;;;5.80;1.00;;;;;;5102962;28;20184;-88
2022/12/07 06:31:44;;;;;;;31.95;20.67;;;5.70;1.00;;;;;;5091525;28;20535;-89
2022/12/07 06:34:13;;;;;;;29.47;20.93;;;5.70;1.00;;;;;;5104912;28;20171;-88
2022/12/07 06:36:38;;;;;;;27.75;20.67;;;5.70;1.00;;;;;;5091824;28;20946;-88
2022/12/07 06:39:05;;;;;;;31.90;22.30;;;5.70;1.00;;;;;;5099674;28;20204;-88
2022/12/07 06:41:31;;;;;;;32.00;22.60;;;5.70;1.00;;;;;;5110552;28;20221;-87
2022/12/07 06:43:56;;;;;;;26.43;21.40;;;5.70;1.00;;;;;;5096925;28;20175;-88
2022/12/07 06:46:22;;;;;;;33.50;21.50;;;5.70;1.00;;;;;;5096027;28;20216;-88
2022/12/07 06:48:48;;;;;;;28.85;21.58;;;5.70;1.00;;;;;;5116287;28;20172;-88
2022/12/07 06:51:13;;;;;;;24.80;19.13;;;5.70;1.00;;;;;;5101083;28;20681;-89
2022/12/07 06:53:39;;;;;;;32.43;21.97;;;5.70;1.00;;;;;;5104366;28;20578;-86
2022/12/07 06:56:05;;;;;;;28.13;19.97;;;5.70;1.00;;;;;;5107571;27;20199;-89
2022/12/07 06:58:31;;;;;;;29.97;20.47;;;5.70;1.00;;;;;;5111514;28;20195;-88
2022/12/07 07:00:56;;;;;;;27.97;19.70;;;5.60;1.00;;;;;;5107134;28;20187;-87
2022/12/07 07:03:22;;;;;;;31.23;21.90;;;5.60;1.00;;;;;;5103919;28;20417;-87
2022/12/07 07:05:47;;;;;;;32.87;22.23;;;5.50;1.00;;;;;;5097139;28;20203;-87
2022/12/07 07:08:13;;;;;;;30.63;22.20;;;5.50;1.00;;;;;;5107534;28;20191;-87
2022/12/07 07:10:39;;;;;;;28.97;21.47;;;5.50;1.00;;;;;;5110184;28;20176;-88
2022/12/07 07:13:05;;;;;;;31.30;21.35;;;5.40;1.00;;;;;;5107511;28;20932;-88
2022/12/07 07:15:31;;;;;;;36.30;21.40;;;5.40;1.00;;;;;;5114193;28;20206;-84
2022/12/07 07:17:57;;;;;;;25.45;20.98;;;5.40;1.00;;;;;;5105826;27;20183;-87
2022/12/07 07:20:22;;;;;;;26.97;20.50;;;5.50;1.00;;;;;;5103912;28;20180;-87
2022/12/07 07:22:48;;;;;;;24.67;19.63;;;5.50;1.00;;;;;;5113709;28;20179;-87
2022/12/07 07:25:14;;;;;;;31.48;21.58;;;5.60;1.00;;;;;;5094499;28;20228;-86
2022/12/07 07:27:40;;;;;;;31.88;23.25;;;5.60;1.00;;;;;;5113770;28;20175;-86
2022/12/07 07:30:07;;;;;;;31.20;25.00;;;5.60;1.00;;;;;;5095934;28;20249;-86
2022/12/07 07:32:33;;;;;;;38.80;25.40;;;5.60;1.00;;;;;;5110039;28;20210;-85
2022/12/07 07:34:58;;;;;;;32.90;23.60;;;5.60;1.00;;;;;;5107639;28;20212;-86
2022/12/07 07:37:24;;;;;;;34.27;23.43;;;5.60;1.00;;;;;;5102139;28;20180;-85
2022/12/07 07:39:49;;;;;;;27.80;20.73;;;5.60;1.00;;;;;;5104784;28;20248;-85
2022/12/07 07:42:15;;;;;;;26.70;22.70;;;5.60;1.00;;;;;;5108029;28;20168;-86
2022/12/07 07:44:40;;;;;;;26.43;20.47;;;5.60;1.00;;;;;;5101279;28;20210;-85
2022/12/07 07:47:06;;;;;;;31.00;22.73;;;5.60;1.00;;;;;;5108861;28;20228;-86
2022/12/07 07:49:32;;;;;;;32.40;24.00;;;5.60;1.00;;;;;;5107641;28;20634;-86
2022/12/07 07:51:57;;;;;;;28.50;20.80;;;5.70;1.00;;;;;;5105777;28;20188;-86
2022/12/07 07:54:23;;;;;;;27.50;21.47;;;5.70;1.00;;;;;;5103494;28;20179;-86
2022/12/07 07:56:48;;;;;;;40.20;23.33;;;5.70;1.00;;;;;;5104628;28;20174;-85
2022/12/07 07:59:14;;;;;;;28.93;21.90;;;5.80;1.00;;;;;;5103902;28;20231;-86
2022/12/07 08:01:40;;;;;;;29.55;20.27;;;5.80;1.00;;;;;;5100273;28;20565;-86
2022/12/07 08:04:06;;;;;;;36.20;21.20;;;5.80;1.00;;;;;;5104191;28;20172;-85
2022/12/07 08:06:31;;;;;;;32.50;20.83;;;5.80;1.00;;;;;;5110915;28;20256;-86
2022/12/07 08:08:58;;;;;;;31.40;21.90;;;5.80;1.00;;;;;;5107473;28;20207;-86
2022/12/07 08:11:23;;;;;;;27.83;20.13;;;5.90;1.00;;;;;;5111134;28;20179;-86
2022/12/07 08:13:49;;;;;;;29.93;20.57;;;6.00;1.00;;;;;;5107673;28;20257;-86
2022/12/07 08:16:14;;;;;;;28.10;20.37;;;6.00;1.00;;;;;;5113429;28;20203;-86
2022/12/07 08:18:41;;;;;;;29.33;21.20;;;6.10;1.00;;;;;;5116644;28;20271;-86
2022/12/07 08:21:09;;;;;;;34.50;20.40;;;6.20;1.00;;;;;;5099475;28;20466;-84
2022/12/07 08:23:35;;;;;;;29.25;19.38;;;6.30;1.00;;;;;;5103055;28;20240;-86
2022/12/07 08:26:05;;;;;;;33.13;19.97;;;6.40;99.90;;;;;;5091349;28;20188;-88
2022/12/07 08:28:31;;;;;;;27.95;18.63;;;6.40;99.90;;;;;;5106115;28;20183;-86
2022/12/07 08:31:08;;;;;;;24.60;18.80;;;6.40;99.90;;;;;;5101831;28;20184;-86
2022/12/07 08:33:34;;;;;;;31.90;21.00;;;6.50;99.90;;;;;;5106973;28;20271;-85
2022/12/07 08:36:02;;;;;;;27.58;20.45;;;6.80;99.90;;;;;;5101593;28;20578;-87
2022/12/07 08:38:28;;;;;;;30.70;18.73;;;6.90;99.90;;;;;;5096909;27;20211;-85
2022/12/07 08:40:55;;;;;;;27.33;18.40;;;7.10;99.90;;;;;;5097176;28;20175;-85
2022/12/07 08:43:21;;;;;;;26.53;18.73;;;7.20;99.90;;;;;;5108178;28;20175;-86
2022/12/07 08:45:51;;;;;;;32.20;18.20;;;7.70;42.10;;;;;;5102962;28;20452;-85
2022/12/07 08:48:21;;;;;;;26.10;17.50;;;8.10;1.00;;;;;;5107505;28;20182;-85
2022/12/07 08:50:47;;;;;;;22.37;16.80;;;8.40;99.90;;;;;;5111900;28;20426;-85
2022/12/07 08:53:13;;;;;;;25.13;17.87;;;8.80;1.00;;;;;;5097891;28;20527;-85
2022/12/07 08:55:39;;;;;;;21.17;15.73;;;9.20;99.90;;;;;;5090117;28;20525;-85
2022/12/07 08:58:04;;;;;;;23.97;16.77;;;9.50;34.60;;;;;;5099393;28;20188;-85
2022/12/07 09:00:30;;;;;;;26.20;14.07;;;9.70;99.90;;;;;;5093005;28;20976;-86
2022/12/07 09:02:55;;;;;;;22.60;16.00;;;9.70;1.00;;;;;;5100235;27;20180;-86
2022/12/07 09:05:21;;;;;;;18.60;15.20;;;9.60;99.90;;;;;;5103456;28;20705;-85
2022/12/07 09:07:52;;;;;;;25.23;15.93;;;9.50;68.00;;;;;;5093684;28;20264;-86
2022/12/07 09:10:18;;;;;;;24.40;16.03;;;9.50;1.00;;;;;;5099765;28;20655;-86
2022/12/07 09:12:43;;;;;;;22.23;16.00;;;9.50;1.00;;;;;;5100738;28;20426;-86
2022/12/07 09:15:09;;;;;;;23.27;14.03;;;9.50;1.00;;;;;;5104325;28;20456;-86
2022/12/07 09:17:35;;;;;;;24.50;16.60;;;9.60;99.90;;;;;;5105866;28;20180;-86
2022/12/07 09:20:02;;;;;;;22.67;16.40;;;9.70;99.90;;;;;;5103897;28;20609;-86
2022/12/07 09:22:31;;;;;;;25.00;16.67;;;9.60;99.90;;;;;;5098603;28;20444;-86
2022/12/07 09:24:58;;;;;;;21.47;16.40;;;9.50;99.90;;;;;;5093539;28;20534;-84
2022/12/07 09:27:24;;;;;;;23.90;16.73;;;9.40;99.90;;;;;;5098634;28;20469;-88
2022/12/07 09:29:49;;;;;;;22.00;16.10;;;9.30;99.90;;;;;;5105580;28;20445;-86
2022/12/07 09:32:15;;;;;;;25.10;16.27;;;9.10;99.90;;;;;;5097922;28;20426;-85
2022/12/07 09:34:40;;;;;;;23.40;15.60;;;9.00;99.90;;;;;;5098403;28;20260;-86
2022/12/07 09:37:06;;;;;;;30.17;16.20;;;9.00;1.00;;;;;;5104643;28;20176;-86
2022/12/07 09:39:32;;;;;;;25.27;16.47;;;9.10;1.00;;;;;;5099577;28;20195;-87
2022/12/07 09:41:59;;;;;;;25.87;16.87;;;9.40;99.90;;;;;;5103433;28;20180;-86
2022/12/07 09:44:28;;;;;;;24.60;17.30;;;9.60;99.90;;;;;;5101280;28;20172;-86
2022/12/07 09:46:53;;;;;;;23.63;16.50;;;9.80;99.90;;;;;;5095185;28;20481;-87
2022/12/07 09:49:22;;;;;;;23.73;15.90;;;10.00;1.00;;;;;;5099960;28;20851;-87
2022/12/07 09:51:58;;;;;;;28.57;17.50;;;10.10;1.00;;;;;;5097076;28;20561;-87
2022/12/07 09:54:24;;;;;;;23.43;16.53;;;10.20;1.00;;;;;;5114738;28;20433;-87
2022/12/07 09:56:50;;;;;;;27.03;17.67;;;10.20;99.90;;;;;;5109213;28;20433;-88
2022/12/07 09:59:19;;;;;;;26.40;18.10;;;10.20;99.90;;;;;;5103684;28;20238;-86
2022/12/07 10:01:49;;;;;;;25.40;17.10;;;10.20;99.90;;;;;;5095659;28;20270;-87
2022/12/07 10:04:24;;;;;;;23.33;16.10;;;10.30;99.90;;;;;;5094562;28;20955;-86
2022/12/07 10:06:53;;;;;;;24.07;17.00;;;10.40;99.90;;;;;;5102628;28;20426;-86
2022/12/07 10:09:21;;;;;;;22.47;16.77;;;10.40;99.90;;;;;;5099414;28;21008;-86
2022/12/07 10:12:08;;;;;;;25.83;17.77;;;10.20;99.90;;;;;;5101496;28;20884;-85
2022/12/07 10:14:36;;;;;;;32.43;17.90;;;9.80;99.90;;;;;;5098724;28;21093;-86
2022/12/07 10:17:02;;;;;;;30.97;19.07;;;9.60;99.90;;;;;;5094901;28;20436;-86
2022/12/07 10:19:33;;;;;;;26.57;17.80;;;9.40;99.90;;;;;;5094570;28;20466;-86
2022/12/07 10:22:11;;;;;;;31.47;19.17;;;9.40;99.90;;;;;;5099779;28;20244;-86
2022/12/07 10:24:42;;;;;;;24.70;17.93;;;9.40;1.00;;;;;;5104389;28;20452;-86
2022/12/07 10:27:32;;;;;;;29.20;19.63;;;9.40;1.00;;;;;;5100072;28;20437;-87
2022/12/07 10:29:58;;;;;;;26.83;19.27;;;9.50;1.00;;;;;;5099251;28;20446;-85
2022/12/07 10:32:30;;;;;;;28.40;18.83;;;9.50;1.00;;;;;;5098605;28;20511;-86
2022/12/07 10:35:26;;;;;;;27.63;19.03;;;9.50;1.00;;;;;;5103217;28;20457;-87
2022/12/07 10:37:57;;;;;;;27.93;19.63;;;9.80;1.00;;;;;;5101854;28;20440;-86
2022/12/07 10:40:33;;;;;;;34.27;20.37;;;10.00;99.90;;;;;;5108395;28;20460;-86
2022/12/07 10:43:12;;;;;;;31.30;20.40;;;10.40;99.90;;;;;;5107987;28;20421;-88
2022/12/07 10:46:16;;;;;;;29.87;20.07;;;10.70;99.90;;;;;;5110738;28;20471;-86
2022/12/07 10:49:18;;;;;;;32.80;20.37;;;11.10;1.00;;;;;;5116170;28;20900;-85
2022/12/07 10:52:01;;;;;;;27.33;19.83;;;11.40;1.00;;;;;;5108213;28;20809;-86
2022/12/07 10:54:45;;;;;;;29.50;20.03;;;11.70;1.00;;;;;;5105592;28;20435;-86
2022/12/07 10:57:56;;;;;;;28.73;20.03;;;12.00;1.00;;;;;;5103138;28;20468;-85
2022/12/07 11:00:24;;;;;;;25.60;18.10;;;12.60;1.00;;;;;;5073657;28;20460;-86
2022/12/07 11:03:17;;;;;;;33.83;18.60;;;12.90;1.00;;;;;;5100260;28;20943;-85
2022/12/07 11:06:14;;;;;;;24.50;16.77;;;12.90;1.00;;;;;;5107587;28;20465;-85
2022/12/07 11:09:04;;;;;;;27.10;16.30;;;12.70;99.90;;;;;;5096799;28;20475;-85
2022/12/07 11:11:46;;;;;;;20.30;14.80;;;12.40;99.90;;;;;;5100129;28;20796;-85
2022/12/07 11:14:21;;;;;;;23.07;14.80;;;12.20;99.90;;;;;;5101710;28;20434;-84
2022/12/07 11:16:56;;;;;;;22.87;15.13;;;12.40;99.90;;;;;;5103608;28;20860;-86
2022/12/07 11:19:52;;;;;;;24.03;14.93;;;12.50;99.90;;;;;;5100629;28;20432;-85
2022/12/07 11:22:51;;;;;;;20.40;12.63;;;12.60;99.90;;;;;;5107515;28;20476;-85
2022/12/07 11:25:24;;;;;;;20.53;10.73;;;13.10;99.90;;;;;;5104374;28;20803;-83
2022/12/07 11:28:18;;;;;;;19.90;11.13;;;13.00;99.90;;;;;;5106540;28;20476;-84
2022/12/07 11:31:03;;;;;;;20.13;12.23;;;12.60;99.90;;;;;;5116091;28;20446;-83
2022/12/07 11:33:47;;;;;;;18.47;11.83;;;12.20;99.90;;;;;;5111279;28;20712;-83
2022/12/07 11:36:46;;;;;;;18.10;12.80;;;11.90;99.90;;;;;;5109151;28;20982;-83
2022/12/07 11:39:33;;;;;;;19.50;11.90;;;11.70;99.90;;;;;;5113268;27;20524;-82
2022/12/07 11:42:27;;;;;;;15.20;10.87;;;11.60;99.90;;;;;;5124403;27;20495;-82
2022/12/07 11:44:59;;;;;;;14.97;10.30;;;11.90;99.90;;;;;;5105676;28;20464;-83
2022/12/07 11:47:54;;;;;;;19.20;11.33;;;12.50;99.90;;;;;;5104906;28;20882;-82
2022/12/07 11:50:37;;;;;;;14.47;10.90;;;12.70;99.90;;;;;;5108469;28;20472;-83
2022/12/07 11:53:08;;;;;;;17.57;11.47;;;12.50;99.90;;;;;;5115958;28;20421;-83
2022/12/07 11:56:11;;;;;;;14.57;10.10;;;12.50;99.90;;;;;;5106761;28;20459;-82
2022/12/07 11:59:04;;;;;;;14.80;9.40;;;12.60;99.90;;;;;;5110079;28;20492;-85
2022/12/07 12:01:38;;;;;;;14.87;9.53;;;12.80;99.90;;;;;;5101985;28;21035;-85
2022/12/07 12:04:09;;;;;;;14.93;10.17;;;12.90;99.90;;;;;;5108920;28;20568;-86
2022/12/07 12:06:36;;;;;;;16.37;10.70;;;12.50;99.90;;;;;;5112250;28;20541;-86
2022/12/07 12:09:11;;;;;;;13.87;9.77;;;12.30;99.90;;;;;;5101929;28;20456;-86
2022/12/07 12:12:14;;;;;;;18.17;10.20;;;12.00;99.90;;;;;;5095853;28;21038;-86
2022/12/07 12:15:19;;;;;;;21.70;10.13;;;11.80;99.90;;;;;;5105039;28;20465;-85
2022/12/07 12:18:09;;;;;;;19.57;10.90;;;11.40;99.90;;;;;;5101918;28;20445;-86
2022/12/07 12:20:42;;;;;;;15.40;10.40;;;11.30;99.90;;;;;;5101647;28;20409;-86
2022/12/07 12:23:20;;;;;;;18.03;10.37;;;11.10;99.90;;;;;;5103867;28;21000;-85
2022/12/07 12:25:54;;;;;;;13.70;10.00;;;11.00;99.90;;;;;;5094943;28;20594;-86
2022/12/07 12:28:25;;;;;;;16.50;10.10;;;10.80;99.90;;;;;;5092568;28;20826;-86
2022/12/07 12:31:20;;;;;;;19.30;10.67;;;10.80;1.00;;;;;;5091471;28;20943;-86
2022/12/07 12:33:54;;;;;;;15.33;9.67;;;10.70;1.00;;;;;;5090183;28;20443;-86
2022/12/07 12:36:40;;;;;;;11.50;8.80;;;10.80;1.00;;;;;;5093057;28;20975;-85
2022/12/07 12:39:13;;;;;;;14.27;8.57;;;11.00;1.00;;;;;;5077462;28;20483;-85
2022/12/07 12:41:39;;;;;;;11.83;8.80;;;11.00;1.00;;;;;;5100951;28;20425;-87
2022/12/07 12:44:19;;;;;;;17.97;7.83;;;10.90;1.00;;;;;;5092402;28;20429;-85
2022/12/07 12:46:59;;;;;;;14.53;9.60;;;10.80;1.00;;;;;;5095328;28;20440;-85
2022/12/07 12:49:27;;;;;;;22.50;9.20;;;10.60;1.00;;;;;;5108018;28;20464;-85
2022/12/07 12:52:03;;;;;;;13.60;9.20;;;10.50;1.00;;;;;;5101731;28;20435;-85
2022/12/07 12:54:33;;;;;;;15.13;9.40;;;10.40;1.00;;;;;;5099749;28;20414;-85
2022/12/07 12:57:21;;;;;;;19.73;9.80;;;10.30;1.00;;;;;;5100267;28;20426;-86
2022/12/07 12:59:53;;;;;;;13.83;9.20;;;10.30;1.00;;;;;;5091012;28;20433;-85
2022/12/07 13:02:37;;;;;;;17.27;9.40;;;10.40;1.00;;;;;;5097035;28;20437;-85
2022/12/07 13:05:07;;;;;;;24.03;8.90;;;10.40;1.00;;;;;;5100134;28;20433;-85
2022/12/07 13:07:51;;;;;;;12.37;6.90;;;10.40;1.00;;;;;;5097277;28;20441;-86